DRO weather

Durango La Plata County Airport
Durango, Colorado, United States

Public forecast

Using degrees Fahrenheit for public forecast. Weather courtesy of forecast.io.

Current aviation weather report (METAR) for Durango La Plata County Airport

Retrieved 2020/04/08 07:53 UTC (1 hour ago):

KDRO 080753Z AUTO 00000KT 10SM CLR 01/M09 A3014 RMK AO2 SLP178 T00111089

Aviation forecast (TAF) for Durango La Plata County Airport

Retrieved 2020/04/08 06:22 UTC (3 hours ago):

TAF KDRO 080520Z 0806/0906 35006KT P6SM SKC FM082100 19008G15KT P6SM FEW120 FM090200 06006KT P6SM FEW100